Time;durP1;ratioP1;P1;durP2;ratioP2;P2;SDS_P1;SDS_P2;PMS_P1;PMS_P2;Temp;Humidity;BMP_temperature;BMP_pressure;BME280_temperature;BME280_humidity;BME280_pressure;Samples;Min_cycle;Max_cycle;Signal;HPM_P1;HPM_P2
2023/03/31 00:00:11;;;;;;;;;;;;;;;;;;4903880;29;19975;-92
2023/03/31 00:02:36;;;;;;;;;;;;;;;;;;4887792;29;19927;-91
2023/03/31 00:05:02;;;;;;;;;;;;;;;;;;4887546;29;20375;-93
2023/03/31 00:07:28;;;;;;;;;;;;;;;;;;4888057;29;19951;-93
2023/03/31 00:09:56;;;;;;;;;;;;;;;;;;4888547;29;20066;-93
2023/03/31 00:12:22;;;;;;;;;;;;;;;;;;4888016;29;19923;-93
2023/03/31 00:14:48;;;;;;;;;;;;;;;;;;4887699;29;19927;-92
2023/03/31 00:17:15;;;;;;;;;;;;;;;;;;4888180;29;20109;-93
2023/03/31 00:19:41;;;;;;;;;;;;;;;;;;4888025;29;20450;-92
2023/03/31 00:22:06;;;;;;;;;;;;;;;;;;4887692;29;19962;-93
2023/03/31 00:24:32;;;;;;;;;;;;;;;;;;4887863;29;19975;-92
2023/03/31 00:26:58;;;;;;;;;;;;;;;;;;4903280;29;19927;-93
2023/03/31 00:29:25;;;;;;;;;;;;;;;;;;4887758;29;19923;-92
2023/03/31 00:31:51;;;;;;;;;;;;;;;;;;4888131;29;19923;-93
2023/03/31 00:34:17;;;;;;;;;;;;;;;;;;4902938;29;20435;-93
2023/03/31 00:36:46;;;;;;;;;;;;;;;;;;4887341;29;19959;-93
2023/03/31 00:39:12;;;;;;;;;;;;;;;;;;4887399;29;19923;-92
2023/03/31 00:41:38;;;;;;;;;;;;;;;;;;4887658;29;20375;-91
2023/03/31 00:44:05;;;;;;;;;;;;;;;;;;4886961;29;19928;-93
2023/03/31 00:46:31;;;;;;;;;;;;;;;;;;4902287;29;20383;-92
2023/03/31 00:48:57;;;;;;;;;;;;;;;;;;4887019;29;20371;-91
2023/03/31 00:51:23;;;;;;;;;;;;;;;;;;4902306;29;19929;-92
2023/03/31 00:53:50;;;;;;;;;;;;;;;;;;4886880;29;19927;-92
2023/03/31 00:56:16;;;;;;;;;;;;;;;;;;4886953;29;20413;-92
2023/03/31 00:58:44;;;;;;;;;;;;;;;;;;4886732;29;19974;-92
2023/03/31 01:01:13;;;;;;;;;;;;;;;;;;4887017;29;19923;-91
2023/03/31 01:03:39;;;;;;;;;;;;;;;;;;4886588;29;20450;-91
2023/03/31 01:06:05;;;;;;;;;;;;;;;;;;4886845;29;19970;-92
2023/03/31 01:08:31;;;;;;;;;;;;;;;;;;4887135;29;19927;-92
2023/03/31 01:10:56;;;;;;;;;;;;;;;;;;4902562;29;19934;-91
2023/03/31 01:13:23;;;;;;;;;;;;;;;;;;4886755;29;20031;-92
2023/03/31 01:15:49;;;;;;;;;;;;;;;;;;4901582;29;19962;-91
2023/03/31 01:18:15;;;;;;;;;;;;;;;;;;4886686;29;19939;-91
2023/03/31 01:20:41;;;;;;;;;;;;;;;;;;4886508;29;19955;-91
2023/03/31 01:23:06;;;;;;;;;;;;;;;;;;4886134;29;20013;-91
2023/03/31 01:25:32;;;;;;;;;;;;;;;;;;4886083;29;19927;-91
2023/03/31 01:27:58;;;;;;;;;;;;;;;;;;4885883;29;19991;-90
2023/03/31 01:30:27;;;;;;;;;;;;;;;;;;4886542;29;19923;-91
2023/03/31 01:32:53;;;;;;;;;;;;;;;;;;4886192;29;19930;-91
2023/03/31 01:35:19;;;;;;;;;;;;;;;;;;4901714;29;20267;-91
2023/03/31 01:37:46;;;;;;;;;;;;;;;;;;4886029;29;19923;-91
2023/03/31 01:40:12;;;;;;;;;;;;;;;;;;4886327;29;19974;-91
2023/03/31 01:42:38;;;;;;;;;;;;;;;;;;4885926;29;19982;-91
2023/03/31 01:45:04;;;;;;;;;;;;;;;;;;4901558;29;19930;-91
2023/03/31 01:47:30;;;;;;;;;;;;;;;;;;4886190;29;20383;-91
2023/03/31 01:49:56;;;;;;;;;;;;;;;;;;4886608;29;19985;-91
2023/03/31 01:52:22;;;;;;;;;;;;;;;;;;4885731;29;19962;-91
2023/03/31 01:54:49;;;;;;;;;;;;;;;;;;4885749;29;19997;-91
2023/03/31 01:57:15;;;;;;;;;;;;;;;;;;4900735;29;19981;-91
2023/03/31 01:59:41;;;;;;;;;;;;;;;;;;4885611;29;19924;-91
2023/03/31 02:02:08;;;;;;;;;;;;;;;;;;4884900;29;19927;-92
2023/03/31 02:04:34;;;;;;;;;;;;;;;;;;4885938;29;20091;-92
2023/03/31 02:07:00;;;;;;;;;;;;;;;;;;4885713;29;20113;-91
2023/03/31 02:09:26;;;;;;;;;;;;;;;;;;4886042;29;19927;-92
2023/03/31 02:11:52;;;;;;;;;;;;;;;;;;4901362;29;20069;-91
2023/03/31 02:14:18;;;;;;;;;;;;;;;;;;4885702;29;19994;-92
2023/03/31 02:16:46;;;;;;;;;;;;;;;;;;4885977;29;19923;-92
2023/03/31 02:19:12;;;;;;;;;;;;;;;;;;4900918;29;20021;-92
2023/03/31 02:21:39;;;;;;;;;;;;;;;;;;4885665;29;20032;-92
2023/03/31 02:24:05;;;;;;;;;;;;;;;;;;4885409;29;19927;-92
2023/03/31 02:26:31;;;;;;;;;;;;;;;;;;4885772;29;19923;-91
2023/03/31 02:28:57;;;;;;;;;;;;;;;;;;4885274;29;19945;-91
2023/03/31 02:31:23;;;;;;;;;;;;;;;;;;4885260;29;19923;-91
2023/03/31 02:33:49;;;;;;;;;;;;;;;;;;4885425;29;20349;-92
2023/03/31 02:36:15;;;;;;;;;;;;;;;;;;4884629;29;19927;-91
2023/03/31 02:38:41;;;;;;;;;;;;;;;;;;4884798;29;19923;-92
2023/03/31 02:41:07;;;;;;;;;;;;;;;;;;4885433;29;20106;-92
2023/03/31 02:43:33;;;;;;;;;;;;;;;;;;4885189;29;20014;-90
2023/03/31 02:45:59;;;;;;;;;;;;;;;;;;4885362;29;19981;-90
2023/03/31 02:48:25;;;;;;;;;;;;;;;;;;4885587;29;20319;-92
2023/03/31 02:50:51;;;;;;;;;;;;;;;;;;4885706;29;20634;-91
2023/03/31 02:53:17;;;;;;;;;;;;;;;;;;4901302;29;20369;-92
2023/03/31 02:55:42;;;;;;;;;;;;;;;;;;4885403;29;20371;-92
2023/03/31 02:58:11;;;;;;;;;;;;;;;;;;4885416;29;20351;-92
2023/03/31 03:00:37;;;;;;;;;;;;;;;;;;4901283;29;19924;-91
2023/03/31 03:03:03;;;;;;;;;;;;;;;;;;4885210;29;19972;-92
2023/03/31 03:05:38;;;;;;;;;;;;;;;;;;4885074;29;19930;-92
2023/03/31 03:08:04;;;;;;;;;;;;;;;;;;4885042;29;19930;-92
2023/03/31 03:10:30;;;;;;;;;;;;;;;;;;4885106;29;19979;-92
2023/03/31 03:12:57;;;;;;;;;;;;;;;;;;4885260;29;19911;-92
2023/03/31 03:15:26;;;;;;;;;;;;;;;;;;4905217;29;19923;-92
2023/03/31 03:17:52;;;;;;;;;;;;;;;;;;4889533;29;20438;-92
2023/03/31 03:20:18;;;;;;;;;;;;;;;;;;4888389;29;19927;-92
2023/03/31 03:22:44;;;;;;;;;;;;;;;;;;4889056;29;19975;-93
2023/03/31 03:25:10;;;;;;;;;;;;;;;;;;4889336;29;19930;-93
2023/03/31 03:27:36;;;;;;;;;;;;;;;;;;4888758;29;20021;-91
2023/03/31 03:30:05;;;;;;;;;;;;;;;;;;4888947;29;20014;-91
2023/03/31 03:32:32;;;;;;;;;;;;;;;;;;4903758;29;20025;-91
2023/03/31 03:34:58;;;;;;;;;;;;;;;;;;4888512;29;19929;-91
2023/03/31 03:37:24;;;;;;;;;;;;;;;;;;4888311;29;19923;-91
2023/03/31 03:39:50;;;;;;;;;;;;;;;;;;4888706;29;20317;-91
2023/03/31 03:42:16;;;;;;;;;;;;;;;;;;4888177;29;19927;-91
2023/03/31 03:44:42;;;;;;;;;;;;;;;;;;4888022;29;19923;-91
2023/03/31 03:47:08;;;;;;;;;;;;;;;;;;4888455;29;20279;-93
2023/03/31 03:49:34;;;;;;;;;;;;;;;;;;4888921;29;19923;-93
2023/03/31 03:52:00;;;;;;;;;;;;;;;;;;4888890;29;19927;-91
2023/03/31 03:54:26;;;;;;;;;;;;;;;;;;4888270;29;19947;-91
2023/03/31 03:56:52;;;;;;;;;;;;;;;;;;4887832;29;19923;-91
2023/03/31 03:59:17;;;;;;;;;;;;;;;;;;4887185;29;19923;-91
2023/03/31 04:01:43;;;;;;;;;;;;;;;;;;4887302;29;19923;-91
2023/03/31 04:04:09;;;;;;;;;;;;;;;;;;4887723;29;20026;-93
2023/03/31 04:06:35;;;;;;;;;;;;;;;;;;4888401;29;19923;-91
2023/03/31 04:09:02;;;;;;;;;;;;;;;;;;4888076;29;19942;-92
2023/03/31 04:11:28;;;;;;;;;;;;;;;;;;4903456;29;20421;-92
2023/03/31 04:13:54;;;;;;;;;;;;;;;;;;4887794;29;19923;-91
2023/03/31 04:16:21;;;;;;;;;;;;;;;;;;4887816;29;19943;-92
2023/03/31 04:18:47;;;;;;;;;;;;;;;;;;4888002;29;19924;-92
2023/03/31 04:21:21;;;;;;;;;;;;;;;;;;4887888;29;19983;-92
2023/03/31 04:23:47;;;;;;;;;;;;;;;;;;4887877;29;19931;-92
2023/03/31 04:26:13;;;;;;;;;;;;;;;;;;4886951;29;20390;-92
2023/03/31 04:28:41;;;;;;;;;;;;;;;;;;4888980;29;20073;-91
2023/03/31 04:31:24;;;;;;;;;;;;;;;;;;4904667;29;19931;-92
2023/03/31 04:33:49;;;;;;;;;;;;;;;;;;4904563;29;19923;-92
2023/03/31 04:36:18;;;;;;;;;;;;;;;;;;4887712;29;20014;-90
2023/03/31 04:38:49;;;;;;;;;;;;;;;;;;4887090;29;20323;-91
2023/03/31 04:41:15;;;;;;;;;;;;;;;;;;4903349;29;19924;-91
2023/03/31 04:43:41;;;;;;;;;;;;;;;;;;4903179;29;19934;-91
2023/03/31 04:46:07;;;;;;;;;;;;;;;;;;4903048;29;20291;-91
2023/03/31 04:48:33;;;;;;;;;;;;;;;;;;4887583;29;19975;-90
2023/03/31 04:50:59;;;;;;;;;;;;;;;;;;4887869;29;20299;-91
2023/03/31 04:53:25;;;;;;;;;;;;;;;;;;4903181;29;20379;-90
2023/03/31 04:55:51;;;;;;;;;;;;;;;;;;4887611;29;19927;-90
2023/03/31 04:58:17;;;;;;;;;;;;;;;;;;4903009;29;19923;-90
2023/03/31 05:00:42;;;;;;;;;;;;;;;;;;4902969;29;20367;-90
2023/03/31 05:03:08;;;;;;;;;;;;;;;;;;4886939;29;19931;-91
2023/03/31 05:05:34;;;;;;;;;;;;;;;;;;4886952;29;19942;-91
2023/03/31 05:08:00;;;;;;;;;;;;;;;;;;4886952;29;19923;-90
2023/03/31 05:10:26;;;;;;;;;;;;;;;;;;4888243;29;19927;-90
2023/03/31 05:12:52;;;;;;;;;;;;;;;;;;4886872;29;20223;-89
2023/03/31 05:15:19;;;;;;;;;;;;;;;;;;4886768;29;20547;-90
2023/03/31 05:17:45;;;;;;;;;;;;;;;;;;4886940;29;20014;-91
2023/03/31 05:20:12;;;;;;;;;;;;;;;;;;4886328;29;19962;-90
2023/03/31 05:22:38;;;;;;;;;;;;;;;;;;4886119;29;19934;-90
2023/03/31 05:25:04;;;;;;;;;;;;;;;;;;4886358;29;20006;-90
2023/03/31 05:27:30;;;;;;;;;;;;;;;;;;4885283;29;19989;-90
2023/03/31 05:29:56;;;;;;;;;;;;;;;;;;4885911;29;19923;-89
2023/03/31 05:32:22;;;;;;;;;;;;;;;;;;4901684;29;19930;-90
2023/03/31 05:34:48;;;;;;;;;;;;;;;;;;4901253;29;20027;-90
2023/03/31 05:37:14;;;;;;;;;;;;;;;;;;4885901;29;20162;-91
2023/03/31 05:39:40;;;;;;;;;;;;;;;;;;4886423;29;19923;-90
2023/03/31 05:42:06;;;;;;;;;;;;;;;;;;4901803;29;20022;-90
2023/03/31 05:44:32;;;;;;;;;;;;;;;;;;4885911;29;20461;-91
2023/03/31 05:46:58;;;;;;;;;;;;;;;;;;4886081;29;20042;-91
2023/03/31 05:49:25;;;;;;;;;;;;;;;;;;4886040;29;20002;-91
2023/03/31 05:51:52;;;;;;;;;;;;;;;;;;4885995;29;19930;-90
2023/03/31 05:54:18;;;;;;;;;;;;;;;;;;4886321;29;19923;-91
2023/03/31 05:56:44;;;;;;;;;;;;;;;;;;4886019;29;19929;-90
2023/03/31 05:59:10;;;;;;;;;;;;;;;;;;4901452;29;19923;-91
2023/03/31 06:01:36;;;;;;;;;;;;;;;;;;4901555;29;19923;-90
2023/03/31 06:04:02;;;;;;;;;;;;;;;;;;4885477;29;19942;-92
2023/03/31 06:06:28;;;;;;;;;;;;;;;;;;4885134;29;19969;-90
2023/03/31 06:08:54;;;;;;;;;;;;;;;;;;4885302;29;19923;-89
2023/03/31 06:11:20;;;;;;;;;;;;;;;;;;4885295;29;20315;-89
2023/03/31 06:13:46;;;;;;;;;;;;;;;;;;4885204;29;19923;-90
2023/03/31 06:16:11;;;;;;;;;;;;;;;;;;4900836;29;19923;-90
2023/03/31 06:18:37;;;;;;;;;;;;;;;;;;4900644;29;19923;-89
2023/03/31 06:21:03;;;;;;;;;;;;;;;;;;4900265;29;20211;-91
2023/03/31 06:23:29;;;;;;;;;;;;;;;;;;4900402;29;19934;-90
2023/03/31 06:25:55;;;;;;;;;;;;;;;;;;4884931;29;19923;-89
2023/03/31 06:28:21;;;;;;;;;;;;;;;;;;4884930;29;19930;-90
2023/03/31 06:30:47;;;;;;;;;;;;;;;;;;4884847;29;19923;-90
2023/03/31 06:33:13;;;;;;;;;;;;;;;;;;4885171;29;19929;-91
2023/03/31 06:35:39;;;;;;;;;;;;;;;;;;4884904;29;19927;-90
2023/03/31 06:38:05;;;;;;;;;;;;;;;;;;4884771;29;20264;-91
2023/03/31 06:40:31;;;;;;;;;;;;;;;;;;4884931;29;19923;-90
2023/03/31 06:42:57;;;;;;;;;;;;;;;;;;4884784;29;20413;-90
2023/03/31 06:45:23;;;;;;;;;;;;;;;;;;4884180;29;19923;-90
2023/03/31 06:47:49;;;;;;;;;;;;;;;;;;4884383;29;19927;-90
2023/03/31 06:50:15;;;;;;;;;;;;;;;;;;4884633;29;19923;-90
2023/03/31 06:52:41;;;;;;;;;;;;;;;;;;4900880;29;19930;-92
2023/03/31 06:55:08;;;;;;;;;;;;;;;;;;4884985;29;20021;-93
2023/03/31 06:57:34;;;;;;;;;;;;;;;;;;4885084;29;19923;-92
2023/03/31 07:00:00;;;;;;;;;;;;;;;;;;4885401;29;19929;-92
2023/03/31 07:02:25;;;;;;;;;;;;;;;;;;4885254;29;19927;-93
2023/03/31 07:04:53;;;;;;;;;;;;;;;;;;4885534;29;20046;-94
2023/03/31 07:07:19;;;;;;;;;;;;;;;;;;4883603;29;19927;-92
2023/03/31 07:09:45;;;;;;;;;;;;;;;;;;4884995;29;20261;-90
2023/03/31 07:12:10;;;;;;;;;;;;;;;;;;4885132;29;20429;-92
2023/03/31 07:14:36;;;;;;;;;;;;;;;;;;4908226;29;19923;-91
2023/03/31 07:17:03;;;;;;;;;;;;;;;;;;4903347;29;19923;-92
2023/03/31 07:19:29;;;;;;;;;;;;;;;;;;4904051;29;19983;-91
2023/03/31 07:21:55;;;;;;;;;;;;;;;;;;4902826;29;19962;-92
2023/03/31 07:24:21;;;;;;;;;;;;;;;;;;4903336;29;19927;-91
2023/03/31 07:26:47;;;;;;;;;;;;;;;;;;4902666;29;19923;-92
2023/03/31 07:29:13;;;;;;;;;;;;;;;;;;4903761;29;19929;-92
2023/03/31 07:31:39;;;;;;;;;;;;;;;;;;4903579;29;19933;-91
2023/03/31 07:34:05;;;;;;;;;;;;;;;;;;4919418;29;19923;-91
2023/03/31 07:36:31;;;;;;;;;;;;;;;;;;4919236;29;19970;-92
2023/03/31 07:38:57;;;;;;;;;;;;;;;;;;4919454;29;19929;-91
2023/03/31 07:41:24;;;;;;;;;;;;;;;;;;4903076;29;20365;-91
2023/03/31 07:43:50;;;;;;;;;;;;;;;;;;4903528;29;19933;-91
2023/03/31 07:46:16;;;;;;;;;;;;;;;;;;4903088;29;20378;-90
2023/03/31 07:48:42;;;;;;;;;;;;;;;;;;4903585;29;19923;-91
2023/03/31 07:51:08;;;;;;;;;;;;;;;;;;4903317;29;19966;-92
2023/03/31 07:53:34;;;;;;;;;;;;;;;;;;4919218;29;19965;-91
2023/03/31 07:56:00;;;;;;;;;;;;;;;;;;4903405;29;19930;-91
2023/03/31 07:58:27;;;;;;;;;;;;;;;;;;4903463;29;19923;-91
2023/03/31 08:00:52;;;;;;;;;;;;;;;;;;4904347;29;19988;-91
2023/03/31 08:03:18;;;;;;;;;;;;;;;;;;4906610;29;19989;-92
2023/03/31 08:05:45;;;;;;;;;;;;;;;;;;4906168;29;20410;-91
2023/03/31 08:08:10;;;;;;;;;;;;;;;;;;4906800;29;20017;-92
2023/03/31 08:10:36;;;;;;;;;;;;;;;;;;4907126;29;20373;-90
2023/03/31 08:13:02;;;;;;;;;;;;;;;;;;4906551;29;20343;-91
2023/03/31 08:15:28;;;;;;;;;;;;;;;;;;4907143;29;20312;-92
2023/03/31 08:17:54;;;;;;;;;;;;;;;;;;4907363;29;19938;-92
2023/03/31 08:20:20;;;;;;;;;;;;;;;;;;4922711;29;20005;-94
2023/03/31 08:22:46;;;;;;;;;;;;;;;;;;4906449;29;20022;-93
2023/03/31 08:25:12;;;;;;;;;;;;;;;;;;4906678;29;19969;-95
2023/03/31 08:27:38;;;;;;;;;;;;;;;;;;4907155;29;19927;-93
2023/03/31 08:30:05;;;;;;;;;;;;;;;;;;4906698;29;19970;-90
2023/03/31 08:32:36;;;;;;;;;;;;;;;;;;4906172;29;19977;-96
2023/03/31 08:35:03;;;;;;;;;;;;;;;;;;4907526;29;19923;-96
2023/03/31 08:37:29;;;;;;;;;;;;;;;;;;4909383;29;19994;-95
2023/03/31 08:39:55;;;;;;;;;;;;;;;;;;4907329;29;19911;-94
2023/03/31 08:42:22;;;;;;;;;;;;;;;;;;4905580;29;19979;-94
2023/03/31 08:45:05;;;;;;;;;;;;;;;;;;4905300;29;20017;-96
2023/03/31 08:47:35;;;;;;;;;;;;;;;;;;4907280;29;19923;-95
2023/03/31 08:50:01;;;;;;;;;;;;;;;;;;4906884;29;19923;-93
2023/03/31 08:52:27;;;;;;;;;;;;;;;;;;4905635;29;19923;-94
2023/03/31 08:54:53;;;;;;;;;;;;;;;;;;4905929;29;19923;-94
2023/03/31 08:57:19;;;;;;;;;;;;;;;;;;4906081;29;19962;-94
2023/03/31 08:59:45;;;;;;;;;;;;;;;;;;4906649;29;19926;-92
2023/03/31 09:02:11;;;;;;;;;;;;;;;;;;4905854;29;20413;-94
2023/03/31 09:04:37;;;;;;;;;;;;;;;;;;4905760;29;19923;-94
2023/03/31 09:07:03;;;;;;;;;;;;;;;;;;4905712;29;19933;-93
2023/03/31 09:09:29;;;;;;;;;;;;;;;;;;4905242;29;20009;-93
2023/03/31 09:12:05;;;;;;;;;;;;;;;;;;;;;
2023/03/31 09:14:31;;;;;;;;;;;;;;;;;;4923266;29;19963;-93
2023/03/31 09:16:57;;;;;;;;;;;;;;;;;;4905238;29;20615;-92
2023/03/31 09:19:23;;;;;;;;;;;;;;;;;;4905243;29;19929;-91
2023/03/31 09:21:49;;;;;;;;;;;;;;;;;;4905224;29;19995;-91
2023/03/31 09:24:15;;;;;;;;;;;;;;;;;;4905286;29;19927;-93
2023/03/31 09:26:41;;;;;;;;;;;;;;;;;;4905648;29;20227;-92
2023/03/31 09:29:07;;;;;;;;;;;;;;;;;;4905348;29;19923;-91
2023/03/31 09:31:34;;;;;;;;;;;;;;;;;;4904795;29;19923;-90
2023/03/31 09:34:00;;;;;;;;;;;;;;;;;;4905459;29;19962;-91
2023/03/31 09:36:26;;;;;;;;;;;;;;;;;;4904979;29;19929;-91
2023/03/31 09:38:52;;;;;;;;;;;;;;;;;;4920506;29;19922;-90
2023/03/31 09:41:18;;;;;;;;;;;;;;;;;;4904826;29;20267;-90
2023/03/31 09:43:48;;;;;;;;;;;;;;;;;;4904126;29;19974;-92
2023/03/31 09:46:14;;;;;;;;;;;;;;;;;;4904046;29;19930;-89
2023/03/31 09:48:41;;;;;;;;;;;;;;;;;;4904542;29;20320;-92
2023/03/31 09:51:07;;;;;;;;;;;;;;;;;;4904688;29;19930;-92
2023/03/31 09:53:33;;;;;;;;;;;;;;;;;;4904394;29;19923;-91
2023/03/31 09:55:59;;;;;;;;;;;;;;;;;;4904663;29;20294;-90
2023/03/31 09:58:25;;;;;;;;;;;;;;;;;;4905892;29;19950;-91
2023/03/31 10:00:51;;;;;;;;;;;;;;;;;;4904877;29;19970;-91
2023/03/31 10:03:17;;;;;;;;;;;;;;;;;;4904061;29;19997;-91
2023/03/31 10:05:43;;;;;;;;;;;;;;;;;;4919714;29;19923;-89
2023/03/31 10:08:08;;;;;;;;;;;;;;;;;;4903538;29;19927;-90
2023/03/31 10:10:34;;;;;;;;;;;;;;;;;;4919438;29;20012;-90
2023/03/31 10:13:01;;;;;;;;;;;;;;;;;;4903987;29;19962;-89
2023/03/31 10:15:27;;;;;;;;;;;;;;;;;;4903062;29;19922;-89
2023/03/31 10:17:54;;;;;;;;;;;;;;;;;;4903847;29;20186;-89
2023/03/31 10:20:20;;;;;;;;;;;;;;;;;;4903677;29;20025;-90
2023/03/31 10:22:46;;;;;;;;;;;;;;;;;;4918627;29;19977;-90
2023/03/31 10:25:12;;;;;;;;;;;;;;;;;;4919076;29;20350;-91
2023/03/31 10:27:38;;;;;;;;;;;;;;;;;;4903672;29;19926;-90
2023/03/31 10:30:04;;;;;;;;;;;;;;;;;;4903505;29;19978;-90
2023/03/31 10:32:30;;;;;;;;;;;;;;;;;;4903756;29;20074;-90
2023/03/31 10:34:56;;;;;;;;;;;;;;;;;;4918849;29;20364;-90
2023/03/31 10:37:22;;;;;;;;;;;;;;;;;;4903409;29;19927;-89
2023/03/31 10:39:48;;;;;;;;;;;;;;;;;;4903456;29;20013;-88
2023/03/31 10:42:14;;;;;;;;;;;;;;;;;;4918969;29;20398;-90
2023/03/31 10:44:40;;;;;;;;;;;;;;;;;;4903429;29;19923;-91
2023/03/31 10:47:06;;;;;;;;;;;;;;;;;;4903730;29;19923;-91
2023/03/31 10:49:32;;;;;;;;;;;;;;;;;;4919039;29;19946;-91
2023/03/31 10:51:58;;;;;;;;;;;;;;;;;;4903369;29;20318;-92
2023/03/31 10:54:24;;;;;;;;;;;;;;;;;;4903074;29;19922;-92
2023/03/31 10:56:50;;;;;;;;;;;;;;;;;;4903273;29;19969;-93
2023/03/31 10:59:17;;;;;;;;;;;;;;;;;;4903652;29;19923;-89
2023/03/31 11:01:44;;;;;;;;;;;;;;;;;;4918815;29;20386;-90
2023/03/31 11:04:10;;;;;;;;;;;;;;;;;;4902924;29;19927;-90
2023/03/31 11:06:36;;;;;;;;;;;;;;;;;;4902661;29;20325;-89
2023/03/31 11:09:02;;;;;;;;;;;;;;;;;;4919096;29;19970;-90
2023/03/31 11:11:28;;;;;;;;;;;;;;;;;;4903048;29;20390;-90
2023/03/31 11:13:54;;;;;;;;;;;;;;;;;;4918678;29;19923;-90
2023/03/31 11:16:20;;;;;;;;;;;;;;;;;;4902763;29;20365;-89
2023/03/31 11:18:46;;;;;;;;;;;;;;;;;;4902443;29;20022;-90
2023/03/31 11:21:12;;;;;;;;;;;;;;;;;;4902736;29;20054;-89
2023/03/31 11:23:38;;;;;;;;;;;;;;;;;;4918334;29;19973;-90
2023/03/31 11:26:04;;;;;;;;;;;;;;;;;;4902899;29;20351;-89
2023/03/31 11:28:30;;;;;;;;;;;;;;;;;;4903086;29;19927;-89
2023/03/31 11:30:56;;;;;;;;;;;;;;;;;;4902995;29;19929;-90
2023/03/31 11:33:21;;;;;;;;;;;;;;;;;;4902605;29;19922;-88
2023/03/31 11:35:49;;;;;;;;;;;;;;;;;;4920617;29;20414;-91
2023/03/31 11:38:16;;;;;;;;;;;;;;;;;;4906980;29;20038;-94
2023/03/31 11:40:42;;;;;;;;;;;;;;;;;;4923259;29;19923;-91
2023/03/31 11:43:08;;;;;;;;;;;;;;;;;;4906808;29;20383;-91
2023/03/31 11:45:34;;;;;;;;;;;;;;;;;;4906763;29;19977;-91
2023/03/31 11:48:01;;;;;;;;;;;;;;;;;;4906696;29;20438;-91
2023/03/31 11:50:27;;;;;;;;;;;;;;;;;;4906911;29;19954;-91
2023/03/31 11:52:53;;;;;;;;;;;;;;;;;;4906751;29;19922;-92
2023/03/31 11:55:20;;;;;;;;;;;;;;;;;;4906345;29;19974;-91
2023/03/31 11:57:46;;;;;;;;;;;;;;;;;;4906451;29;19970;-91
2023/03/31 12:00:12;;;;;;;;;;;;;;;;;;4906026;29;20294;-91
2023/03/31 12:02:38;;;;;;;;;;;;;;;;;;4906574;29;19950;-91
2023/03/31 12:05:04;;;;;;;;;;;;;;;;;;4906430;29;19954;-91
2023/03/31 12:07:30;;;;;;;;;;;;;;;;;;4906490;29;20385;-90
2023/03/31 12:10:01;;;;;;;;;;;;;;;;;;4906434;29;19923;-91
2023/03/31 12:12:27;;;;;;;;;;;;;;;;;;4906492;29;19927;-91
2023/03/31 12:14:53;;;;;;;;;;;;;;;;;;4905742;29;19946;-89
2023/03/31 12:17:19;;;;;;;;;;;;;;;;;;4905561;29;19923;-92
2023/03/31 12:19:45;;;;;;;;;;;;;;;;;;4922248;29;19978;-91
2023/03/31 12:22:11;;;;;;;;;;;;;;;;;;4921851;29;20014;-92
2023/03/31 12:24:37;;;;;;;;;;;;;;;;;;4905919;29;19927;-91
2023/03/31 12:27:03;;;;;;;;;;;;;;;;;;4922694;29;19922;-89
2023/03/31 12:29:29;;;;;;;;;;;;;;;;;;4906159;29;19974;-90
2023/03/31 12:31:55;;;;;;;;;;;;;;;;;;4906296;29;19927;-89
2023/03/31 12:34:22;;;;;;;;;;;;;;;;;;4921184;29;19929;-88
2023/03/31 12:36:48;;;;;;;;;;;;;;;;;;4902765;29;19923;-90
2023/03/31 12:39:17;;;;;;;;;;;;;;;;;;4903066;29;19931;-90
2023/03/31 12:41:43;;;;;;;;;;;;;;;;;;4886930;29;19923;-91
2023/03/31 12:44:09;;;;;;;;;;;;;;;;;;4886833;29;20264;-91
2023/03/31 12:46:35;;;;;;;;;;;;;;;;;;4886592;29;19933;-92
2023/03/31 12:49:00;;;;;;;;;;;;;;;;;;4886671;29;20000;-92
2023/03/31 12:51:26;;;;;;;;;;;;;;;;;;4902542;29;19923;-93
2023/03/31 12:53:52;;;;;;;;;;;;;;;;;;4902585;29;19923;-92
2023/03/31 12:56:18;;;;;;;;;;;;;;;;;;4886272;29;19934;-92
2023/03/31 12:58:44;;;;;;;;;;;;;;;;;;4886462;29;19923;-94
2023/03/31 13:01:10;;;;;;;;;;;;;;;;;;4886670;29;19927;-92
2023/03/31 13:03:36;;;;;;;;;;;;;;;;;;4887065;29;20002;-92
2023/03/31 13:06:02;;;;;;;;;;;;;;;;;;4887776;29;20240;-91
2023/03/31 13:08:28;;;;;;;;;;;;;;;;;;4887432;29;19923;-92
2023/03/31 13:10:54;;;;;;;;;;;;;;;;;;4902465;29;19923;-92
2023/03/31 13:13:22;;;;;;;;;;;;;;;;;;4886528;29;19990;-93
2023/03/31 13:15:47;;;;;;;;;;;;;;;;;;4886096;29;19923;-93
2023/03/31 13:18:13;;;;;;;;;;;;;;;;;;4887082;29;19923;-93
2023/03/31 13:20:42;;;;;;;;;;;;;;;;;;4901997;29;19926;-92
2023/03/31 13:23:08;;;;;;;;;;;;;;;;;;4886250;29;19931;-92
2023/03/31 13:25:34;;;;;;;;;;;;;;;;;;4886166;29;19923;-90
2023/03/31 13:28:00;;;;;;;;;;;;;;;;;;4886067;29;19930;-92
2023/03/31 13:30:26;;;;;;;;;;;;;;;;;;4886437;29;19985;-92
2023/03/31 13:32:52;;;;;;;;;;;;;;;;;;4886423;29;19923;-92
2023/03/31 13:35:18;;;;;;;;;;;;;;;;;;4888270;29;19923;-91
2023/03/31 13:37:44;;;;;;;;;;;;;;;;;;4888311;29;20020;-91
2023/03/31 13:40:11;;;;;;;;;;;;;;;;;;4890020;29;19947;-91
2023/03/31 13:42:37;;;;;;;;;;;;;;;;;;4890025;29;20375;-92
2023/03/31 13:45:03;;;;;;;;;;;;;;;;;;4889682;29;19923;-91
2023/03/31 13:47:29;;;;;;;;;;;;;;;;;;4905431;29;20436;-92
2023/03/31 13:49:55;;;;;;;;;;;;;;;;;;4909996;29;19931;-92
2023/03/31 13:52:21;;;;;;;;;;;;;;;;;;4908617;29;19989;-92
2023/03/31 13:54:47;;;;;;;;;;;;;;;;;;4905969;29;20304;-91
2023/03/31 13:57:13;;;;;;;;;;;;;;;;;;4904117;29;19923;-92
2023/03/31 13:59:40;;;;;;;;;;;;;;;;;;4890477;29;19983;-92
2023/03/31 14:02:06;;;;;;;;;;;;;;;;;;4872751;29;19923;-92
2023/03/31 14:04:32;;;;;;;;;;;;;;;;;;4887880;29;19951;-93
2023/03/31 14:06:58;;;;;;;;;;;;;;;;;;4886538;29;19923;-93
2023/03/31 14:09:24;;;;;;;;;;;;;;;;;;4885871;29;20283;-92
2023/03/31 14:11:50;;;;;;;;;;;;;;;;;;4886085;29;19978;-92
2023/03/31 14:14:16;;;;;;;;;;;;;;;;;;4901040;29;20335;-92
2023/03/31 14:16:42;;;;;;;;;;;;;;;;;;4885071;29;19923;-92
2023/03/31 14:19:08;;;;;;;;;;;;;;;;;;4884498;29;19927;-91
2023/03/31 14:21:34;;;;;;;;;;;;;;;;;;4885096;29;19933;-92
2023/03/31 14:24:01;;;;;;;;;;;;;;;;;;4900683;29;19942;-95
2023/03/31 14:26:27;;;;;;;;;;;;;;;;;;4885458;29;19923;-91
2023/03/31 14:28:53;;;;;;;;;;;;;;;;;;4900787;29;19982;-95
2023/03/31 14:31:20;;;;;;;;;;;;;;;;;;4886009;29;19927;-93
2023/03/31 14:33:46;;;;;;;;;;;;;;;;;;4902010;29;19923;-93
2023/03/31 14:36:14;;;;;;;;;;;;;;;;;;4886110;29;19923;-92
2023/03/31 14:38:40;;;;;;;;;;;;;;;;;;4891151;29;19931;-93
2023/03/31 14:41:07;;;;;;;;;;;;;;;;;;4891540;29;20390;-94
2023/03/31 14:43:35;;;;;;;;;;;;;;;;;;4906774;29;19931;-92
2023/03/31 14:46:01;;;;;;;;;;;;;;;;;;4894185;29;19955;-94
2023/03/31 14:48:27;;;;;;;;;;;;;;;;;;4886297;29;19923;-94
2023/03/31 14:50:53;;;;;;;;;;;;;;;;;;4885891;29;19966;-94
2023/03/31 14:53:19;;;;;;;;;;;;;;;;;;4885848;29;19934;-94
2023/03/31 14:55:46;;;;;;;;;;;;;;;;;;4885585;29;20338;-94
2023/03/31 14:58:12;;;;;;;;;;;;;;;;;;4885094;29;19978;-94
2023/03/31 15:00:37;;;;;;;;;;;;;;;;;;4884696;29;20272;-93
2023/03/31 15:03:03;;;;;;;;;;;;;;;;;;4885186;29;19927;-92
2023/03/31 15:05:29;;;;;;;;;;;;;;;;;;4885424;29;20395;-92
2023/03/31 15:07:56;;;;;;;;;;;;;;;;;;4885280;29;19922;-93
2023/03/31 15:10:22;;;;;;;;;;;;;;;;;;4889472;29;19927;-92
2023/03/31 15:12:48;;;;;;;;;;;;;;;;;;4891098;29;19930;-92
2023/03/31 15:15:15;;;;;;;;;;;;;;;;;;4891095;29;19923;-92
2023/03/31 15:17:41;;;;;;;;;;;;;;;;;;4891201;29;19923;-92
2023/03/31 15:20:06;;;;;;;;;;;;;;;;;;4890731;29;19930;-94
2023/03/31 15:22:32;;;;;;;;;;;;;;;;;;4893288;29;20084;-93
2023/03/31 15:24:58;;;;;;;;;;;;;;;;;;4891555;29;19981;-93
2023/03/31 15:27:24;;;;;;;;;;;;;;;;;;4891122;29;19985;-93
2023/03/31 15:29:50;;;;;;;;;;;;;;;;;;4891161;29;19923;-92
2023/03/31 15:32:16;;;;;;;;;;;;;;;;;;4891162;29;19923;-93
2023/03/31 15:34:42;;;;;;;;;;;;;;;;;;4891461;29;19927;-93
2023/03/31 15:37:08;;;;;;;;;;;;;;;;;;4890657;29;20358;-92
2023/03/31 15:39:35;;;;;;;;;;;;;;;;;;4890529;29;20023;-94
2023/03/31 15:42:01;;;;;;;;;;;;;;;;;;4907468;29;19923;-95
2023/03/31 15:44:27;;;;;;;;;;;;;;;;;;4892075;29;19930;-92
2023/03/31 15:46:53;;;;;;;;;;;;;;;;;;4890550;29;19931;-92
2023/03/31 15:49:19;;;;;;;;;;;;;;;;;;4890772;29;20260;-92
2023/03/31 15:51:45;;;;;;;;;;;;;;;;;;4890951;29;20375;-91
2023/03/31 15:54:11;;;;;;;;;;;;;;;;;;4890971;29;20018;-91
2023/03/31 15:56:37;;;;;;;;;;;;;;;;;;4890756;29;19923;-91
2023/03/31 15:59:03;;;;;;;;;;;;;;;;;;4890566;29;19922;-92
2023/03/31 16:01:31;;;;;;;;;;;;;;;;;;4890525;29;19935;-92
2023/03/31 16:03:57;;;;;;;;;;;;;;;;;;4890442;29;19923;-92
2023/03/31 16:06:23;;;;;;;;;;;;;;;;;;4890516;29;19933;-92
2023/03/31 16:08:49;;;;;;;;;;;;;;;;;;4890589;29;20303;-92
2023/03/31 16:11:18;;;;;;;;;;;;;;;;;;4890730;29;19923;-92
2023/03/31 16:13:44;;;;;;;;;;;;;;;;;;4890103;29;19990;-93
2023/03/31 16:16:10;;;;;;;;;;;;;;;;;;4891106;29;20279;-93
2023/03/31 16:18:36;;;;;;;;;;;;;;;;;;4890739;29;19923;-93
2023/03/31 16:21:02;;;;;;;;;;;;;;;;;;4888107;29;20371;-93
2023/03/31 16:23:28;;;;;;;;;;;;;;;;;;4887397;29;20143;-93
2023/03/31 16:25:54;;;;;;;;;;;;;;;;;;4887946;29;20030;-93
2023/03/31 16:28:20;;;;;;;;;;;;;;;;;;4887502;29;19970;-90
2023/03/31 16:30:46;;;;;;;;;;;;;;;;;;4898771;29;19948;-90
2023/03/31 16:33:12;;;;;;;;;;;;;;;;;;4921243;29;19996;-89
2023/03/31 16:35:38;;;;;;;;;;;;;;;;;;4905149;29;19927;-89
2023/03/31 16:38:04;;;;;;;;;;;;;;;;;;4905482;29;19937;-90